Time;durP1;ratioP1;P1;durP2;ratioP2;P2;SDS_P1;SDS_P2;PMS_P1;PMS_P2;Temp;Humidity;BMP_temperature;BMP_pressure;BME280_temperature;BME280_humidity;BME280_pressure;Samples;Min_cycle;Max_cycle;Signal;HPM_P1;HPM_P2
2024/03/12 00:06:25;;;;;;;0.00;0.00;;;;;;;6.12;73.25;100584.00;15610888;28;20049;-50
2024/03/12 00:14:00;;;;;;;0.05;0.05;;;;;;;6.16;72.83;100591.66;15610411;28;20525;-48
2024/03/12 00:21:37;;;;;;;0.00;0.00;;;;;;;5.96;72.94;100573.53;15609844;28;20048;-51
2024/03/12 00:29:19;;;;;;;0.73;0.73;;;;;;;5.98;72.75;100584.03;15592518;28;20069;-50
2024/03/12 00:36:56;;;;;;;0.65;0.65;;;;;;;5.72;72.88;100589.75;15591517;28;20548;-51
2024/03/12 00:44:36;;;;;;;0.03;0.03;;;;;;;5.75;72.44;100584.06;15608766;28;20045;-50
2024/03/12 00:52:10;;;;;;;0.10;0.10;;;;;;;5.51;72.97;100577.97;15598114;28;20045;-49
2024/03/12 00:59:45;;;;;;;0.00;0.00;;;;;;;5.52;73.01;100586.78;15599636;28;20049;-52
2024/03/12 01:07:20;;;;;;;0.65;0.65;;;;;;;5.65;72.68;100586.19;15599486;28;20431;-48
2024/03/12 01:14:56;;;;;;;1.63;1.38;;;;;;;5.53;72.31;100589.25;15583434;28;20236;-50
2024/03/12 01:22:33;;;;;;;0.30;0.30;;;;;;;5.42;72.52;100583.56;15589560;28;20421;-47
2024/03/12 01:30:20;;;;;;;2.40;0.88;;;;;;;5.30;72.32;100581.31;15590985;28;20425;-53
2024/03/12 01:37:57;;;;;;;0.10;0.10;;;;;;;5.17;73.25;100588.25;15607014;28;20083;-50
2024/03/12 01:45:35;;;;;;;0.00;0.00;;;;;;;5.22;72.60;100586.72;15599798;28;20049;-48
2024/03/12 01:53:10;;;;;;;0.55;0.25;;;;;;;5.06;73.53;100593.00;15588576;28;20115;-49
2024/03/12 02:00:48;;;;;;;0.10;0.10;;;;;;;4.60;74.97;100603.59;15606723;28;20050;-50
2024/03/12 02:08:24;;;;;;;0.10;0.10;;;;;;;4.14;78.04;100596.50;15607319;28;20096;-50
2024/03/12 02:16:10;;;;;;;0.35;0.35;;;;;;;4.75;76.01;100594.88;15613406;28;20513;-49
2024/03/12 02:23:45;;;;;;;0.08;0.08;;;;;;;5.00;75.39;100584.91;15599509;28;20045;-50
2024/03/12 02:31:19;;;;;;;0.00;0.00;;;;;;;5.16;74.72;100586.59;15588812;28;20070;-50
2024/03/12 02:38:54;;;;;;;3.13;1.52;;;;;;;5.29;74.67;100590.31;15602564;28;20400;-49
2024/03/12 02:46:30;;;;;;;0.00;0.00;;;;;;;5.23;74.78;100595.53;15608007;28;20046;-49
2024/03/12 02:54:05;;;;;;;0.82;0.73;;;;;;;4.91;75.56;100597.44;15572211;28;20037;-47
2024/03/12 03:01:41;;;;;;;0.00;0.00;;;;;;;5.37;74.89;100600.06;15613999;28;20041;-48
2024/03/12 03:09:17;;;;;;;0.10;0.10;;;;;;;5.45;74.61;100596.50;15612565;28;20136;-47
2024/03/12 03:16:54;;;;;;;0.17;0.17;;;;;;;5.46;74.44;100614.16;15613790;28;20038;-49
2024/03/12 03:24:30;;;;;;;0.68;0.63;;;;;;;5.43;73.80;100625.13;15610839;28;20128;-48
2024/03/12 03:32:06;;;;;;;0.60;0.52;;;;;;;5.28;73.29;100601.16;15612772;28;20462;-48
2024/03/12 03:39:44;;;;;;;0.35;0.35;;;;;;;5.08;74.12;100616.75;15605096;28;20049;-46
2024/03/12 03:47:22;;;;;;;0.10;0.10;;;;;;;5.17;74.12;100622.84;15588126;28;20029;-46
2024/03/12 03:54:57;;;;;;;0.00;0.00;;;;;;;4.98;73.97;100630.28;15611549;28;20038;-47
2024/03/12 04:02:34;;;;;;;0.10;0.10;;;;;;;4.92;75.86;100646.94;15609540;28;20037;-47
2024/03/12 04:10:11;;;;;;;0.15;0.15;;;;;;;4.93;76.04;100648.59;15602002;28;20474;-46
2024/03/12 04:17:50;;;;;;;0.47;0.47;;;;;;;4.94;75.85;100657.41;15570234;28;20069;-47
2024/03/12 04:25:26;;;;;;;0.30;0.30;;;;;;;4.85;75.27;100656.66;15593170;28;20068;-49
2024/03/12 04:33:07;;;;;;;0.00;0.00;;;;;;;5.07;74.93;100670.97;15597231;28;20037;-47
2024/03/12 04:40:43;;;;;;;0.10;0.10;;;;;;;4.83;75.70;100670.09;15608224;28;20038;-47
2024/03/12 04:48:21;;;;;;;0.20;0.20;;;;;;;4.73;75.38;100679.31;15581784;28;20043;-47
2024/03/12 04:55:57;;;;;;;0.15;0.15;;;;;;;4.83;75.98;100677.25;15606506;28;20505;-48
2024/03/12 05:03:36;;;;;;;1.83;0.60;;;;;;;4.77;76.08;100693.91;15608485;28;20045;-46
2024/03/12 05:11:14;;;;;;;0.00;0.00;;;;;;;4.72;75.80;100693.59;15606173;28;20050;-47
2024/03/12 05:18:49;;;;;;;0.60;0.45;;;;;;;4.77;76.40;100699.22;15606957;28;20037;-48
2024/03/12 05:26:28;;;;;;;2.17;0.70;;;;;;;4.89;75.51;100697.81;15591312;28;20430;-48
2024/03/12 05:34:03;;;;;;;0.20;0.20;;;;;;;5.00;76.16;100707.25;15574938;28;20040;-47
2024/03/12 05:41:49;;;;;;;0.00;0.00;;;;;;;4.93;75.28;100717.75;15606625;28;20059;-49
2024/03/12 05:49:40;;;;;;;0.20;0.20;;;;;;;5.15;76.17;100717.97;15593256;28;20053;-48
2024/03/12 05:57:22;;;;;;;0.47;0.47;;;;;;;5.29;75.61;100730.53;15619255;28;20294;-49
2024/03/12 06:04:56;;;;;;;0.95;0.95;;;;;;;5.33;75.21;100731.84;15618803;28;20211;-50
2024/03/12 06:12:37;;;;;;;0.00;0.00;;;;;;;5.55;75.46;100743.53;15615910;28;20483;-46
2024/03/12 06:20:30;;;;;;;0.47;0.47;;;;;;;5.63;76.09;100746.09;15603940;28;20459;-47
2024/03/12 06:28:11;;;;;;;0.65;0.65;;;;;;;5.52;76.42;100759.84;15601080;28;20434;-50
2024/03/12 06:35:48;;;;;;;0.00;0.00;;;;;;;5.44;78.07;100759.88;15616630;28;20049;-51
2024/03/12 06:43:24;;;;;;;0.38;0.38;;;;;;;5.84;77.21;100774.75;15606270;28;20572;-51
2024/03/12 06:51:08;;;;;;;0.00;0.00;;;;;;;5.91;76.30;100782.84;15662301;28;20124;-48
2024/03/12 06:58:45;;;;;;;0.85;0.85;;;;;;;5.98;76.50;100784.66;15659762;28;20037;-49
2024/03/12 07:06:21;;;;;;;0.00;0.00;;;;;;;7.01;73.73;100785.78;15669364;28;20048;-47
2024/03/12 07:14:02;;;;;;;0.20;0.20;;;;;;;7.79;71.16;100781.53;15629791;28;20041;-50
2024/03/12 07:21:37;;;;;;;0.30;0.30;;;;;;;8.68;68.32;100782.66;15663033;28;20050;-49
2024/03/12 07:29:14;;;;;;;0.70;0.70;;;;;;;9.35;67.78;100781.13;15651715;28;20045;-50
2024/03/12 07:36:48;;;;;;;0.50;0.50;;;;;;;9.17;67.80;100794.22;15668953;28;20037;-50
2024/03/12 07:44:24;;;;;;;2.28;0.55;;;;;;;9.78;65.57;100796.06;15633163;28;20111;-53
2024/03/12 07:52:02;;;;;;;0.40;0.40;;;;;;;10.36;62.03;100790.97;15610537;28;20042;-46
2024/03/12 07:59:38;;;;;;;0.20;0.20;;;;;;;10.67;63.35;100801.88;15606030;28;20161;-47
2024/03/12 08:07:14;;;;;;;1.77;0.73;;;;;;;10.49;63.57;100807.06;15597270;28;20068;-47
2024/03/12 08:14:50;;;;;;;0.55;0.55;;;;;;;9.94;65.20;100809.09;15590455;28;20048;-47
2024/03/12 08:22:23;;;;;;;1.30;0.40;;;;;;;10.31;64.92;100804.19;15599978;28;20030;-51
2024/03/12 08:29:59;;;;;;;0.98;0.95;;;;;;;10.12;65.57;100813.88;15585606;28;20061;-46
2024/03/12 08:37:33;;;;;;;0.45;0.43;;;;;;;10.78;63.79;100811.16;15583605;28;20037;-47
2024/03/12 08:45:09;;;;;;;0.00;0.00;;;;;;;10.78;64.13;100815.72;15599872;28;20049;-48
2024/03/12 08:52:43;;;;;;;0.40;0.40;;;;;;;10.68;63.83;100818.81;15646336;28;20044;-48
2024/03/12 09:00:19;;;;;;;0.35;0.35;;;;;;;11.53;61.44;100826.81;15670564;28;20382;-46
2024/03/12 09:07:53;;;;;;;0.93;0.30;;;;;;;13.36;56.41;100821.16;15649044;28;20041;-50
2024/03/12 09:15:48;;;;;;;0.30;0.30;;;;;;;14.71;50.60;100821.41;15623162;28;20068;-51
2024/03/12 09:23:28;;;;;;;0.00;0.00;;;;;;;13.57;53.34;100833.31;15665800;28;20465;-49
2024/03/12 09:31:04;;;;;;;0.20;0.10;;;;;;;15.61;49.08;100822.72;15666428;28;20115;-49
2024/03/12 09:38:50;;;;;;;0.00;0.00;;;;;;;15.73;49.23;100820.81;15660862;28;20033;-52
2024/03/12 09:46:25;;;;;;;0.95;0.38;;;;;;;16.11;46.83;100824.75;15602978;28;20446;-48
2024/03/12 09:54:03;;;;;;;0.00;0.00;;;;;;;18.49;40.12;100821.75;15583710;28;20057;-52
2024/03/12 10:01:44;;;;;;;0.10;0.10;;;;;;;16.51;42.97;100829.19;15600163;28;20076;-48
2024/03/12 10:09:27;;;;;;;0.00;0.00;;;;;;;17.38;41.47;100833.13;15599693;28;20155;-51
2024/03/12 10:17:13;;;;;;;0.25;0.25;;;;;;;18.80;39.12;100828.25;15566967;28;20053;-48
2024/03/12 10:24:49;;;;;;;0.00;0.00;;;;;;;17.72;39.71;100831.91;15552632;28;20038;-49
2024/03/12 10:32:36;;;;;;;0.30;0.30;;;;;;;17.11;41.57;100835.75;15581990;28;20556;-47
2024/03/12 10:40:15;;;;;;;0.00;0.00;;;;;;;18.50;38.48;100832.34;15591907;28;20065;-52
2024/03/12 10:47:56;;;;;;;1.85;1.20;;;;;;;18.40;39.20;100831.44;15604522;28;20383;-48
2024/03/12 10:55:32;;;;;;;0.43;0.32;;;;;;;16.10;42.71;100827.72;15602535;28;20069;-52
2024/03/12 11:03:13;;;;;;;1.00;0.88;;;;;;;17.50;41.22;100829.22;15590625;28;20107;-49
2024/03/12 11:10:48;;;;;;;0.30;0.20;;;;;;;16.54;41.82;100831.41;15613632;28;20046;-49
2024/03/12 11:18:36;;;;;;;0.52;0.30;;;;;;;16.27;42.00;100814.97;15596726;28;20044;-52
2024/03/12 11:26:14;;;;;;;2.38;0.77;;;;;;;17.63;40.70;100821.75;15604614;28;20063;-50
2024/03/12 11:33:51;;;;;;;1.38;0.30;;;;;;;21.14;34.76;100808.66;15584409;28;20065;-51
2024/03/12 11:41:45;;;;;;;0.55;0.55;;;;;;;20.57;34.79;100809.91;15608230;28;20041;-51
2024/03/12 11:49:37;;;;;;;0.00;0.00;;;;;;;19.55;36.17;100818.78;15601318;28;20048;-49
2024/03/12 11:57:21;;;;;;;0.10;0.10;;;;;;;20.20;35.92;100812.91;15611443;28;20056;-49
2024/03/12 12:04:57;;;;;;;0.00;0.00;;;;;;;21.25;33.43;100812.16;15584535;28;20046;-49
2024/03/12 12:12:33;;;;;;;0.00;0.00;;;;;;;21.81;34.26;100811.88;15571505;28;20037;-53
2024/03/12 12:20:14;;;;;;;0.47;0.47;;;;;;;21.11;34.45;100810.03;15603045;28;20124;-49
2024/03/12 12:27:48;;;;;;;0.47;0.30;;;;;;;20.66;34.95;100818.34;15567627;28;20410;-50
2024/03/12 12:35:24;;;;;;;0.20;0.20;;;;;;;21.67;33.43;100808.97;15584608;28;20071;-50
2024/03/12 12:43:00;;;;;;;0.10;0.10;;;;;;;18.52;37.27;100810.34;15585313;28;20037;-49
2024/03/12 12:50:38;;;;;;;1.80;0.90;;;;;;;18.56;37.75;100806.84;15604271;28;20045;-51
2024/03/12 12:58:13;;;;;;;0.75;0.65;;;;;;;17.89;39.28;100807.38;15580476;28;20522;-53
2024/03/12 13:05:50;;;;;;;0.80;0.75;;;;;;;16.73;40.91;100813.81;15605675;28;20228;-47
2024/03/12 13:13:28;;;;;;;0.03;0.03;;;;;;;16.25;43.94;100815.22;15557446;28;20356;-52
2024/03/12 13:21:06;;;;;;;0.32;0.20;;;;;;;16.74;40.58;100820.06;15606552;28;20124;-50
2024/03/12 13:28:40;;;;;;;0.95;0.68;;;;;;;17.14;40.89;100819.00;15589813;28;20136;-50
2024/03/12 13:36:19;;;;;;;0.45;0.30;;;;;;;16.40;41.91;100821.97;15588286;28;20064;-50
2024/03/12 13:43:57;;;;;;;0.00;0.00;;;;;;;16.57;42.38;100823.59;15605846;28;20034;-51
2024/03/12 13:51:33;;;;;;;0.73;0.40;;;;;;;15.20;43.90;100794.03;15601746;28;20041;-52
2024/03/12 13:59:07;;;;;;;0.15;0.15;;;;;;;15.36;43.48;100825.75;15604932;28;20124;-50
2024/03/12 14:06:46;;;;;;;0.00;0.00;;;;;;;15.06;44.67;100831.34;15587086;28;20446;-51
2024/03/12 14:14:21;;;;;;;1.60;0.95;;;;;;;15.96;43.03;100833.44;15595729;28;20087;-48
2024/03/12 14:21:57;;;;;;;0.80;0.38;;;;;;;16.06;44.33;100825.47;15600193;28;20454;-49
2024/03/12 14:29:34;;;;;;;2.08;0.70;;;;;;;15.61;44.06;100844.38;15613899;28;20041;-53
2024/03/12 14:37:10;;;;;;;0.35;0.35;;;;;;;14.58;44.46;100851.34;15617586;28;20041;-54
2024/03/12 14:44:44;;;;;;;0.60;0.28;;;;;;;14.68;44.01;100865.09;15589129;28;20051;-51
2024/03/12 14:52:21;;;;;;;0.63;0.43;;;;;;;14.64;44.54;100863.09;15603717;28;20095;-50
2024/03/12 14:59:55;;;;;;;0.25;0.25;;;;;;;14.65;44.24;100870.16;15594071;28;20041;-50
2024/03/12 15:07:33;;;;;;;0.00;0.00;;;;;;;14.53;44.45;100864.72;15614786;28;20085;-49
2024/03/12 15:15:10;;;;;;;0.20;0.20;;;;;;;14.19;46.13;100879.78;15598789;28;20049;-53
2024/03/12 15:22:51;;;;;;;0.68;0.60;;;;;;;14.08;48.81;100888.66;15616455;28;20046;-49
2024/03/12 15:30:33;;;;;;;0.00;0.00;;;;;;;13.72;49.74;100890.41;15604413;28;20042;-49
2024/03/12 15:38:09;;;;;;;0.00;0.00;;;;;;;13.57;50.90;100889.94;15593091;28;20327;-53
2024/03/12 15:45:43;;;;;;;0.70;0.52;;;;;;;13.92;49.40;100900.91;15669587;22;20127;-52
2024/03/12 15:53:21;;;;;;;0.00;0.00;;;;;;;13.78;49.82;100905.66;15718402;28;20041;-51
2024/03/12 16:00:56;;;;;;;0.13;0.13;;;;;;;13.47;51.01;100909.34;15722618;28;20049;-49
2024/03/12 16:08:47;;;;;;;5.28;0.75;;;;;;;13.50;51.52;100919.69;15731482;28;20497;-50
2024/03/12 16:16:23;;;;;;;0.13;0.13;;;;;;;13.72;51.09;100923.59;15719344;28;20083;-48
2024/03/12 16:24:06;;;;;;;0.00;0.00;;;;;;;13.17;52.41;100925.41;15723542;28;20049;-49
2024/03/12 16:31:42;;;;;;;1.00;0.57;;;;;;;13.06;52.77;100927.00;15717336;28;20193;-50
2024/03/12 16:39:20;;;;;;;0.73;0.73;;;;;;;13.87;51.13;100931.28;15729955;28;20063;-51
2024/03/12 16:46:55;;;;;;;1.65;0.75;;;;;;;13.07;53.80;100939.41;15763961;28;20035;-51
2024/03/12 16:54:33;;;;;;;1.45;0.57;;;;;;;12.89;55.05;100948.28;15788111;28;20036;-51
2024/03/12 17:02:12;;;;;;;1.00;0.70;;;;;;;12.84;55.84;100953.50;15789044;28;20497;-51
2024/03/12 17:09:51;;;;;;;0.55;0.55;;;;;;;12.61;56.88;100966.72;15782177;28;20090;-51
2024/03/12 17:17:40;;;;;;;0.10;0.10;;;;;;;12.68;57.60;100971.03;15777606;28;20093;-51
2024/03/12 17:25:18;;;;;;;1.17;1.08;;;;;;;12.20;58.92;100974.22;15790269;28;20036;-52
2024/03/12 17:32:59;;;;;;;0.90;0.50;;;;;;;12.50;58.45;100989.78;15782200;28;20043;-50
2024/03/12 17:40:52;;;;;;;0.38;0.38;;;;;;;12.58;58.50;101000.28;15776898;28;20037;-51
2024/03/12 17:48:34;;;;;;;1.65;1.50;;;;;;;12.28;59.17;101000.06;15737757;28;20064;-52
2024/03/12 17:56:13;;;;;;;0.13;0.13;;;;;;;12.02;60.59;101005.56;15711056;28;20136;-49
2024/03/12 18:03:47;;;;;;;1.35;1.25;;;;;;;12.12;59.87;101014.81;15712730;28;20045;-51
2024/03/12 18:11:30;;;;;;;1.25;1.05;;;;;;;11.85;61.26;101019.50;15723057;28;20044;-51
2024/03/12 18:19:05;;;;;;;0.77;0.55;;;;;;;12.34;59.55;101023.41;15731092;28;20127;-50
2024/03/12 18:26:49;;;;;;;1.30;1.20;;;;;;;12.24;59.92;101021.19;15714740;28;20036;-50
2024/03/12 18:34:24;;;;;;;0.43;0.43;;;;;;;12.18;60.81;101032.81;15733877;28;20060;-56
2024/03/12 18:42:05;;;;;;;0.75;0.75;;;;;;;12.12;60.10;101033.66;15718421;28;20055;-54
2024/03/12 18:49:44;;;;;;;2.00;0.80;;;;;;;11.72;61.28;101044.53;15787744;28;20047;-58
2024/03/12 18:57:19;;;;;;;0.15;0.15;;;;;;;11.94;60.69;101039.75;15809325;28;20048;-49
2024/03/12 19:04:58;;;;;;;2.30;1.50;;;;;;;11.60;61.58;101051.56;15787842;28;20485;-50
2024/03/12 19:12:34;;;;;;;1.17;1.10;;;;;;;11.58;61.15;101055.50;15788503;28;20044;-50
2024/03/12 19:20:14;;;;;;;0.20;0.20;;;;;;;11.43;61.95;101061.94;15796054;28;20086;-49
2024/03/12 19:27:50;;;;;;;1.55;1.02;;;;;;;11.58;60.91;101061.72;15800106;28;20063;-48
2024/03/12 19:35:34;;;;;;;0.65;0.57;;;;;;;10.95;63.02;101066.66;15794664;28;20143;-50
2024/03/12 19:43:15;;;;;;;1.55;1.13;;;;;;;11.60;61.04;101067.69;15795652;28;20578;-48
2024/03/12 19:50:49;;;;;;;0.70;0.70;;;;;;;11.42;61.73;101078.25;15722263;28;20096;-50
2024/03/12 19:58:25;;;;;;;0.90;0.85;;;;;;;11.48;61.76;101072.88;15724778;28;20044;-50
2024/03/12 20:05:59;;;;;;;1.88;1.23;;;;;;;11.53;61.63;101076.81;15707964;28;20037;-48
2024/03/12 20:13:41;;;;;;;0.80;0.80;;;;;;;11.81;60.87;101081.94;15732897;28;20047;-51
2024/03/12 20:21:16;;;;;;;0.00;0.00;;;;;;;11.67;60.87;101089.22;15726324;28;20055;-50
2024/03/12 20:28:55;;;;;;;0.20;0.20;;;;;;;11.30;62.69;101091.50;15723569;28;20036;-52
2024/03/12 20:36:34;;;;;;;0.25;0.25;;;;;;;11.71;61.23;101099.34;15713279;28;20388;-50
2024/03/12 20:44:10;;;;;;;1.92;0.82;;;;;;;11.24;62.54;101100.41;15751286;28;20043;-53
2024/03/12 20:51:45;;;;;;;0.32;0.32;;;;;;;11.00;63.49;101104.47;15789542;28;20075;-54
2024/03/12 20:59:21;;;;;;;0.60;0.60;;;;;;;11.32;62.54;101110.09;15779012;28;20032;-47
2024/03/12 21:06:54;;;;;;;1.15;0.98;;;;;;;11.48;62.01;101109.69;15795027;28;20032;-53
2024/03/12 21:14:29;;;;;;;1.05;0.98;;;;;;;11.11;63.48;101108.44;15788146;28;20497;-49
2024/03/12 21:22:07;;;;;;;0.85;0.70;;;;;;;11.27;62.53;101121.47;15776948;28;20138;-49
2024/03/12 21:29:43;;;;;;;1.27;0.47;;;;;;;10.98;64.30;101110.06;15794532;28;20032;-49
2024/03/12 21:37:17;;;;;;;0.93;0.93;;;;;;;11.13;63.89;101120.63;15759029;28;20102;-51
2024/03/12 21:44:52;;;;;;;0.08;0.08;;;;;;;11.01;63.85;101116.06;15766376;28;20076;-51
2024/03/12 21:52:27;;;;;;;0.05;0.05;;;;;;;11.17;63.75;101119.19;15707890;28;20075;-51
2024/03/12 22:00:10;;;;;;;3.78;1.25;;;;;;;10.86;65.13;101127.78;15711561;28;20037;-51
2024/03/12 22:07:48;;;;;;;0.47;0.47;;;;;;;10.38;66.52;101132.38;15715134;28;20036;-51
2024/03/12 22:15:25;;;;;;;0.85;0.82;;;;;;;10.69;66.40;101132.72;15734455;28;20481;-49
2024/03/12 22:22:59;;;;;;;0.68;0.65;;;;;;;10.19;67.54;101126.66;15722024;28;20055;-51
2024/03/12 22:30:34;;;;;;;0.30;0.30;;;;;;;9.69;69.33;101131.28;15726457;28;20566;-54
2024/03/12 22:38:09;;;;;;;0.40;0.35;;;;;;;10.25;67.61;101130.44;15727348;28;20497;-51
2024/03/12 22:45:45;;;;;;;2.20;1.42;;;;;;;10.30;67.70;101127.16;15750483;28;20085;-49
2024/03/12 22:53:23;;;;;;;0.15;0.15;;;;;;;10.22;67.86;101130.81;15796318;28;20055;-50
2024/03/12 23:01:00;;;;;;;3.83;1.05;;;;;;;10.22;68.02;101128.97;15795698;28;20407;-52
2024/03/12 23:08:51;;;;;;;2.00;0.95;;;;;;;10.19;68.25;101117.78;15771662;28;20047;-49
2024/03/12 23:16:34;;;;;;;1.47;1.37;;;;;;;9.76;69.69;101123.31;15779763;28;20036;-51
2024/03/12 23:24:26;;;;;;;0.32;0.32;;;;;;;10.55;67.37;101128.31;15785504;28;22419;-49
2024/03/12 23:32:19;;;;;;;0.32;0.32;;;;;;;10.11;68.51;101132.19;15789456;28;20102;-49
2024/03/12 23:40:11;;;;;;;;;;;;;;;10.42;67.68;101120.22;15774386;28;20044;-55
2024/03/12 23:47:46;;;;;;;2.08;1.23;;;;;;;10.21;68.48;101132.69;15738856;28;19986;-50
2024/03/12 23:55:20;;;;;;;1.75;0.40;;;;;;;10.28;68.22;101124.69;15735083;28;20478;-49
